Flight Briefing for CPX235

Departure Arrival
Phoenix Sky Harbor International Airport (KPHX)
Click to view FAA NOTAMS
Miami International Airport (KMIA)
Click to view FAA NOTAMS
Departure Time Arrival Time
N/A N/A
Aircraft Distance
B767-300BDSF 1723nm
Departure METAR Arrival METAR
KPHX 152051Z 15004KT 10SM BKN042 BKN070 BKN250 18/10 A2995 RMK AO2 SLP134 T01830100 56015 KMIA 152053Z 10006KT 10SM BKN034 OVC250 25/19 A2993 RMK AO2 SLP134 T02500189 56013
Suggested Route
ECLPS1 PHASE ELP FST J86 LEV Y290 BLVNS Y290 BAGGS SSCOT5


View recent IFR Routes data
Notes



Charts and Procedures

Charts for KPHX
No chart available
Charts for KMIA
No chart available

Ventusky Weather